sensor_id;sensor_type;location;lat;lon;timestamp;temperature;humidity
13980;DHT22;73871;49.900;8.594;2024-01-15T00:00:17;-1.50;99.90
13980;DHT22;73871;49.900;8.594;2024-01-15T00:02:44;-1.50;99.90
13980;DHT22;73871;49.900;8.594;2024-01-15T00:05:11;-1.50;99.90
13980;DHT22;73871;49.900;8.594;2024-01-15T00:07:38;-1.50;99.90
13980;DHT22;73871;49.900;8.594;2024-01-15T00:10:05;-1.50;99.90
13980;DHT22;73871;49.900;8.594;2024-01-15T00:12:32;-1.50;99.90
13980;DHT22;73871;49.900;8.594;2024-01-15T00:14:59;-1.40;99.90
13980;DHT22;73871;49.900;8.594;2024-01-15T00:17:26;-1.40;99.90
13980;DHT22;73871;49.900;8.594;2024-01-15T00:19:53;-1.40;99.90
13980;DHT22;73871;49.900;8.594;2024-01-15T00:22:20;-1.40;99.90
13980;DHT22;73871;49.900;8.594;2024-01-15T00:24:46;-1.40;99.90
13980;DHT22;73871;49.900;8.594;2024-01-15T00:27:13;-1.40;99.90
13980;DHT22;73871;49.900;8.594;2024-01-15T00:29:40;-1.40;99.90
13980;DHT22;73871;49.900;8.594;2024-01-15T00:32:07;-1.40;99.90
13980;DHT22;73871;49.900;8.594;2024-01-15T00:34:34;-1.30;99.90
13980;DHT22;73871;49.900;8.594;2024-01-15T00:37:01;-1.40;99.90
13980;DHT22;73871;49.900;8.594;2024-01-15T00:39:28;-1.40;99.90
13980;DHT22;73871;49.900;8.594;2024-01-15T00:41:54;-1.40;99.90
13980;DHT22;73871;49.900;8.594;2024-01-15T00:44:21;-1.30;99.90
13980;DHT22;73871;49.900;8.594;2024-01-15T00:46:48;-1.50;99.90
13980;DHT22;73871;49.900;8.594;2024-01-15T00:49:15;-1.40;99.90
13980;DHT22;73871;49.900;8.594;2024-01-15T00:51:42;-1.40;99.90
13980;DHT22;73871;49.900;8.594;2024-01-15T00:54:09;-1.50;99.90
13980;DHT22;73871;49.900;8.594;2024-01-15T00:56:36;-1.60;99.90
13980;DHT22;73871;49.900;8.594;2024-01-15T00:59:03;-1.50;99.90
13980;DHT22;73871;49.900;8.594;2024-01-15T01:01:31;-1.50;99.90
13980;DHT22;73871;49.900;8.594;2024-01-15T01:03:58;-1.50;99.90
13980;DHT22;73871;49.900;8.594;2024-01-15T01:06:25;-1.50;99.90
13980;DHT22;73871;49.900;8.594;2024-01-15T01:08:52;-1.50;99.90
13980;DHT22;73871;49.900;8.594;2024-01-15T01:11:18;-1.60;99.90
13980;DHT22;73871;49.900;8.594;2024-01-15T01:13:45;-1.50;99.90
13980;DHT22;73871;49.900;8.594;2024-01-15T01:16:12;-1.60;99.90
13980;DHT22;73871;49.900;8.594;2024-01-15T01:18:39;-1.60;99.90
13980;DHT22;73871;49.900;8.594;2024-01-15T01:21:06;-1.60;99.90
13980;DHT22;73871;49.900;8.594;2024-01-15T01:23:33;-1.70;99.90
13980;DHT22;73871;49.900;8.594;2024-01-15T01:25:59;-1.50;99.90
13980;DHT22;73871;49.900;8.594;2024-01-15T01:28:27;-1.50;99.90
13980;DHT22;73871;49.900;8.594;2024-01-15T01:30:54;-1.40;99.90
13980;DHT22;73871;49.900;8.594;2024-01-15T01:33:21;-1.50;99.90
13980;DHT22;73871;49.900;8.594;2024-01-15T01:35:48;-1.50;99.90
13980;DHT22;73871;49.900;8.594;2024-01-15T01:38:14;-1.50;99.90
13980;DHT22;73871;49.900;8.594;2024-01-15T01:40:42;-1.40;99.90
13980;DHT22;73871;49.900;8.594;2024-01-15T01:43:09;-1.40;99.90
13980;DHT22;73871;49.900;8.594;2024-01-15T01:45:37;-1.30;99.90
13980;DHT22;73871;49.900;8.594;2024-01-15T01:48:05;-1.40;99.90
13980;DHT22;73871;49.900;8.594;2024-01-15T01:50:32;-1.40;99.90
13980;DHT22;73871;49.900;8.594;2024-01-15T01:53:01;-1.30;99.90
13980;DHT22;73871;49.900;8.594;2024-01-15T01:55:29;-1.30;99.90
13980;DHT22;73871;49.900;8.594;2024-01-15T01:57:57;-1.30;99.90
13980;DHT22;73871;49.900;8.594;2024-01-15T02:00:24;-1.40;99.90
13980;DHT22;73871;49.900;8.594;2024-01-15T02:02:51;-1.30;99.90
13980;DHT22;73871;49.900;8.594;2024-01-15T02:05:19;-1.30;99.90
13980;DHT22;73871;49.900;8.594;2024-01-15T02:07:46;-1.30;99.90
13980;DHT22;73871;49.900;8.594;2024-01-15T02:10:14;-1.30;99.90
13980;DHT22;73871;49.900;8.594;2024-01-15T02:12:42;-1.30;99.90
13980;DHT22;73871;49.900;8.594;2024-01-15T02:15:10;-1.30;99.90
13980;DHT22;73871;49.900;8.594;2024-01-15T02:17:57;-1.30;99.90
13980;DHT22;73871;49.900;8.594;2024-01-15T02:20:25;-1.30;99.90
13980;DHT22;73871;49.900;8.594;2024-01-15T02:22:52;-1.20;99.90
13980;DHT22;73871;49.900;8.594;2024-01-15T02:25:19;-1.20;99.90
13980;DHT22;73871;49.900;8.594;2024-01-15T02:27:46;-1.20;99.90
13980;DHT22;73871;49.900;8.594;2024-01-15T02:30:13;-1.20;99.90
13980;DHT22;73871;49.900;8.594;2024-01-15T02:32:40;-1.20;99.90
13980;DHT22;73871;49.900;8.594;2024-01-15T02:35:07;-1.30;99.90
13980;DHT22;73871;49.900;8.594;2024-01-15T02:37:34;-1.20;99.90
13980;DHT22;73871;49.900;8.594;2024-01-15T02:40:02;-1.30;99.90
13980;DHT22;73871;49.900;8.594;2024-01-15T02:42:29;-1.20;99.90
13980;DHT22;73871;49.900;8.594;2024-01-15T02:44:56;-1.30;99.90
13980;DHT22;73871;49.900;8.594;2024-01-15T02:47:22;-1.20;99.90
13980;DHT22;73871;49.900;8.594;2024-01-15T02:49:49;-1.20;99.90
13980;DHT22;73871;49.900;8.594;2024-01-15T02:52:17;-1.30;99.90
13980;DHT22;73871;49.900;8.594;2024-01-15T02:54:43;-1.30;99.90
13980;DHT22;73871;49.900;8.594;2024-01-15T02:57:10;-1.20;99.90
13980;DHT22;73871;49.900;8.594;2024-01-15T02:59:37;-1.20;99.90
13980;DHT22;73871;49.900;8.594;2024-01-15T03:02:04;-1.10;99.90
13980;DHT22;73871;49.900;8.594;2024-01-15T03:04:31;-1.20;99.90
13980;DHT22;73871;49.900;8.594;2024-01-15T03:06:57;-1.20;99.90
13980;DHT22;73871;49.900;8.594;2024-01-15T03:09:24;-1.20;99.90
13980;DHT22;73871;49.900;8.594;2024-01-15T03:11:51;-1.10;99.90
13980;DHT22;73871;49.900;8.594;2024-01-15T03:14:18;-1.00;99.90
13980;DHT22;73871;49.900;8.594;2024-01-15T03:16:44;-1.00;99.90
13980;DHT22;73871;49.900;8.594;2024-01-15T03:19:11;-1.10;99.90
13980;DHT22;73871;49.900;8.594;2024-01-15T03:21:38;-0.90;99.90
13980;DHT22;73871;49.900;8.594;2024-01-15T03:24:05;-1.00;99.90
13980;DHT22;73871;49.900;8.594;2024-01-15T03:26:32;-0.90;99.90
13980;DHT22;73871;49.900;8.594;2024-01-15T03:28:58;-0.90;99.90
13980;DHT22;73871;49.900;8.594;2024-01-15T03:31:25;-1.00;99.90
13980;DHT22;73871;49.900;8.594;2024-01-15T03:33:52;-1.00;99.90
13980;DHT22;73871;49.900;8.594;2024-01-15T03:36:19;-1.00;99.90
13980;DHT22;73871;49.900;8.594;2024-01-15T03:38:46;-0.90;99.90
13980;DHT22;73871;49.900;8.594;2024-01-15T03:41:13;-1.00;99.90
13980;DHT22;73871;49.900;8.594;2024-01-15T03:43:40;-0.90;99.90
13980;DHT22;73871;49.900;8.594;2024-01-15T03:46:07;-0.90;99.90
13980;DHT22;73871;49.900;8.594;2024-01-15T03:48:34;-0.80;99.90
13980;DHT22;73871;49.900;8.594;2024-01-15T03:51:01;-0.80;99.90
13980;DHT22;73871;49.900;8.594;2024-01-15T03:53:28;-0.80;99.90
13980;DHT22;73871;49.900;8.594;2024-01-15T03:55:54;-0.80;99.90
13980;DHT22;73871;49.900;8.594;2024-01-15T03:58:21;-0.80;99.90
13980;DHT22;73871;49.900;8.594;2024-01-15T04:00:48;-0.90;99.90
13980;DHT22;73871;49.900;8.594;2024-01-15T04:03:15;-0.80;99.90
13980;DHT22;73871;49.900;8.594;2024-01-15T04:05:43;-0.80;99.90
13980;DHT22;73871;49.900;8.594;2024-01-15T04:08:09;-0.80;99.90
13980;DHT22;73871;49.900;8.594;2024-01-15T04:10:36;-0.80;99.90
13980;DHT22;73871;49.900;8.594;2024-01-15T04:13:03;-0.90;99.90
13980;DHT22;73871;49.900;8.594;2024-01-15T04:15:30;-0.90;99.90
13980;DHT22;73871;49.900;8.594;2024-01-15T04:17:57;-0.90;99.90
13980;DHT22;73871;49.900;8.594;2024-01-15T04:20:23;-0.80;99.90
13980;DHT22;73871;49.900;8.594;2024-01-15T04:22:52;-0.80;99.90
13980;DHT22;73871;49.900;8.594;2024-01-15T04:25:19;-0.70;99.90
13980;DHT22;73871;49.900;8.594;2024-01-15T04:27:45;-0.70;99.90
13980;DHT22;73871;49.900;8.594;2024-01-15T04:30:13;-0.70;99.90
13980;DHT22;73871;49.900;8.594;2024-01-15T04:32:40;-0.90;99.90
13980;DHT22;73871;49.900;8.594;2024-01-15T04:35:07;-0.80;99.90
13980;DHT22;73871;49.900;8.594;2024-01-15T04:37:34;-0.80;99.90
13980;DHT22;73871;49.900;8.594;2024-01-15T04:40:01;-0.90;99.90
13980;DHT22;73871;49.900;8.594;2024-01-15T04:42:30;-0.80;99.90
13980;DHT22;73871;49.900;8.594;2024-01-15T04:44:57;-0.80;99.90
13980;DHT22;73871;49.900;8.594;2024-01-15T04:47:23;-0.80;99.90
13980;DHT22;73871;49.900;8.594;2024-01-15T04:49:50;-0.90;99.90
13980;DHT22;73871;49.900;8.594;2024-01-15T04:52:17;-0.80;99.90
13980;DHT22;73871;49.900;8.594;2024-01-15T04:54:44;-0.80;99.90
13980;DHT22;73871;49.900;8.594;2024-01-15T04:57:11;-0.80;99.90
13980;DHT22;73871;49.900;8.594;2024-01-15T04:59:38;-0.80;99.90
13980;DHT22;73871;49.900;8.594;2024-01-15T05:02:06;-0.80;99.90
13980;DHT22;73871;49.900;8.594;2024-01-15T05:04:33;-0.80;99.90
13980;DHT22;73871;49.900;8.594;2024-01-15T05:07:00;-0.80;99.90
13980;DHT22;73871;49.900;8.594;2024-01-15T05:09:26;-0.70;99.90
13980;DHT22;73871;49.900;8.594;2024-01-15T05:11:58;-0.80;99.90
13980;DHT22;73871;49.900;8.594;2024-01-15T05:14:25;-0.70;99.90
13980;DHT22;73871;49.900;8.594;2024-01-15T05:16:51;-0.60;99.90
13980;DHT22;73871;49.900;8.594;2024-01-15T05:19:18;-0.50;99.90
13980;DHT22;73871;49.900;8.594;2024-01-15T05:21:45;-0.60;99.90
13980;DHT22;73871;49.900;8.594;2024-01-15T05:24:12;-0.50;99.90
13980;DHT22;73871;49.900;8.594;2024-01-15T05:26:39;-0.50;99.90
13980;DHT22;73871;49.900;8.594;2024-01-15T05:29:06;-0.50;99.90
13980;DHT22;73871;49.900;8.594;2024-01-15T05:31:32;-0.40;99.90
13980;DHT22;73871;49.900;8.594;2024-01-15T05:33:59;-0.40;99.90
13980;DHT22;73871;49.900;8.594;2024-01-15T05:36:26;-0.40;99.90
13980;DHT22;73871;49.900;8.594;2024-01-15T05:38:53;-0.40;99.90
13980;DHT22;73871;49.900;8.594;2024-01-15T05:41:20;-0.40;99.90
13980;DHT22;73871;49.900;8.594;2024-01-15T05:43:47;-0.30;99.90
13980;DHT22;73871;49.900;8.594;2024-01-15T05:46:13;-0.50;99.90
13980;DHT22;73871;49.900;8.594;2024-01-15T05:48:42;-0.40;99.90
13980;DHT22;73871;49.900;8.594;2024-01-15T05:51:10;-0.40;99.90
13980;DHT22;73871;49.900;8.594;2024-01-15T05:53:36;-0.50;99.90
13980;DHT22;73871;49.900;8.594;2024-01-15T05:56:06;-0.60;99.90
13980;DHT22;73871;49.900;8.594;2024-01-15T05:58:33;-0.70;99.90
13980;DHT22;73871;49.900;8.594;2024-01-15T06:01:00;-0.80;99.90
13980;DHT22;73871;49.900;8.594;2024-01-15T06:03:27;-0.80;99.90
13980;DHT22;73871;49.900;8.594;2024-01-15T06:05:54;-0.90;99.90
13980;DHT22;73871;49.900;8.594;2024-01-15T06:08:21;-0.80;99.90
13980;DHT22;73871;49.900;8.594;2024-01-15T06:10:47;-0.80;99.90
13980;DHT22;73871;49.900;8.594;2024-01-15T06:13:14;-0.70;99.90
13980;DHT22;73871;49.900;8.594;2024-01-15T06:15:41;-0.80;99.90
13980;DHT22;73871;49.900;8.594;2024-01-15T06:18:08;-0.80;99.90
13980;DHT22;73871;49.900;8.594;2024-01-15T06:20:35;-0.70;99.90
13980;DHT22;73871;49.900;8.594;2024-01-15T06:23:02;-0.70;99.90
13980;DHT22;73871;49.900;8.594;2024-01-15T06:25:29;-0.80;99.90
13980;DHT22;73871;49.900;8.594;2024-01-15T06:27:56;-0.60;99.90
13980;DHT22;73871;49.900;8.594;2024-01-15T06:30:23;-0.60;99.90
13980;DHT22;73871;49.900;8.594;2024-01-15T06:32:50;-0.50;99.90
13980;DHT22;73871;49.900;8.594;2024-01-15T06:35:17;-0.50;99.90
13980;DHT22;73871;49.900;8.594;2024-01-15T06:37:48;-0.40;99.90
13980;DHT22;73871;49.900;8.594;2024-01-15T06:40:15;-0.40;99.90
13980;DHT22;73871;49.900;8.594;2024-01-15T06:42:41;-0.50;99.90
13980;DHT22;73871;49.900;8.594;2024-01-15T06:45:08;-0.50;99.90
13980;DHT22;73871;49.900;8.594;2024-01-15T06:47:35;-0.50;99.90
13980;DHT22;73871;49.900;8.594;2024-01-15T06:50:02;-0.40;99.90
13980;DHT22;73871;49.900;8.594;2024-01-15T06:52:29;-0.30;99.90
13980;DHT22;73871;49.900;8.594;2024-01-15T06:54:56;-0.30;99.90
13980;DHT22;73871;49.900;8.594;2024-01-15T06:57:22;-0.40;99.90
13980;DHT22;73871;49.900;8.594;2024-01-15T06:59:49;-0.40;99.90
13980;DHT22;73871;49.900;8.594;2024-01-15T07:02:16;-0.40;99.90
13980;DHT22;73871;49.900;8.594;2024-01-15T07:04:43;-0.30;99.90
13980;DHT22;73871;49.900;8.594;2024-01-15T07:07:10;-0.20;99.90
13980;DHT22;73871;49.900;8.594;2024-01-15T07:09:36;-0.20;99.90
13980;DHT22;73871;49.900;8.594;2024-01-15T07:12:03;-0.10;99.90
13980;DHT22;73871;49.900;8.594;2024-01-15T07:14:30;-0.20;99.90
13980;DHT22;73871;49.900;8.594;2024-01-15T07:16:57;-0.20;99.90
13980;DHT22;73871;49.900;8.594;2024-01-15T07:19:24;-0.10;99.90
13980;DHT22;73871;49.900;8.594;2024-01-15T07:21:52;-0.20;99.90
13980;DHT22;73871;49.900;8.594;2024-01-15T07:24:22;-0.20;99.90
13980;DHT22;73871;49.900;8.594;2024-01-15T07:26:49;-0.20;99.90
13980;DHT22;73871;49.900;8.594;2024-01-15T07:29:16;-0.10;99.90
13980;DHT22;73871;49.900;8.594;2024-01-15T07:31:51;-0.10;99.90
13980;DHT22;73871;49.900;8.594;2024-01-15T07:34:18;-0.10;99.90
13980;DHT22;73871;49.900;8.594;2024-01-15T07:36:45;-0.10;99.90
13980;DHT22;73871;49.900;8.594;2024-01-15T07:39:12;0.00;99.90
13980;DHT22;73871;49.900;8.594;2024-01-15T07:41:40;-0.10;99.90
13980;DHT22;73871;49.900;8.594;2024-01-15T07:44:07;-0.10;99.90
13980;DHT22;73871;49.900;8.594;2024-01-15T07:46:33;-0.10;99.90
13980;DHT22;73871;49.900;8.594;2024-01-15T07:49:00;-0.20;99.90
13980;DHT22;73871;49.900;8.594;2024-01-15T07:51:27;-0.10;99.90
13980;DHT22;73871;49.900;8.594;2024-01-15T07:53:54;-0.10;99.90
13980;DHT22;73871;49.900;8.594;2024-01-15T07:56:23;0.00;99.90
13980;DHT22;73871;49.900;8.594;2024-01-15T07:58:50;0.00;99.90
13980;DHT22;73871;49.900;8.594;2024-01-15T08:01:17;0.00;99.90
13980;DHT22;73871;49.900;8.594;2024-01-15T08:03:44;0.10;99.90
13980;DHT22;73871;49.900;8.594;2024-01-15T08:06:11;-0.10;99.90
13980;DHT22;73871;49.900;8.594;2024-01-15T08:08:38;0.00;99.90
13980;DHT22;73871;49.900;8.594;2024-01-15T08:11:05;0.00;99.90
13980;DHT22;73871;49.900;8.594;2024-01-15T08:13:32;0.10;99.90
13980;DHT22;73871;49.900;8.594;2024-01-15T08:15:59;0.20;99.90
13980;DHT22;73871;49.900;8.594;2024-01-15T08:18:25;0.10;99.90
13980;DHT22;73871;49.900;8.594;2024-01-15T08:20:53;0.20;99.90
13980;DHT22;73871;49.900;8.594;2024-01-15T08:23:20;0.30;99.90
13980;DHT22;73871;49.900;8.594;2024-01-15T08:25:47;0.30;99.90
13980;DHT22;73871;49.900;8.594;2024-01-15T08:28:14;0.40;99.90
13980;DHT22;73871;49.900;8.594;2024-01-15T08:30:41;0.40;99.90
13980;DHT22;73871;49.900;8.594;2024-01-15T08:33:08;0.50;99.90
13980;DHT22;73871;49.900;8.594;2024-01-15T08:35:47;0.50;99.90
13980;DHT22;73871;49.900;8.594;2024-01-15T08:38:13;0.60;99.90
13980;DHT22;73871;49.900;8.594;2024-01-15T08:40:40;0.50;99.90
13980;DHT22;73871;49.900;8.594;2024-01-15T08:43:07;0.70;99.90
13980;DHT22;73871;49.900;8.594;2024-01-15T08:45:34;0.60;99.90
13980;DHT22;73871;49.900;8.594;2024-01-15T08:48:01;0.60;99.90
13980;DHT22;73871;49.900;8.594;2024-01-15T08:50:29;0.60;99.90
13980;DHT22;73871;49.900;8.594;2024-01-15T08:52:56;0.70;99.90
13980;DHT22;73871;49.900;8.594;2024-01-15T08:55:23;0.90;99.90
13980;DHT22;73871;49.900;8.594;2024-01-15T08:57:50;1.10;99.90
13980;DHT22;73871;49.900;8.594;2024-01-15T09:00:17;1.10;99.90
13980;DHT22;73871;49.900;8.594;2024-01-15T09:02:44;1.30;99.90
13980;DHT22;73871;49.900;8.594;2024-01-15T09:05:11;1.30;99.90
13980;DHT22;73871;49.900;8.594;2024-01-15T09:07:38;1.20;99.90
13980;DHT22;73871;49.900;8.594;2024-01-15T09:10:05;1.20;99.90
13980;DHT22;73871;49.900;8.594;2024-01-15T09:12:33;1.20;99.90
13980;DHT22;73871;49.900;8.594;2024-01-15T09:14:59;1.30;99.90
13980;DHT22;73871;49.900;8.594;2024-01-15T09:17:26;1.30;99.90
13980;DHT22;73871;49.900;8.594;2024-01-15T09:19:54;1.40;99.90
13980;DHT22;73871;49.900;8.594;2024-01-15T09:22:21;1.40;99.90
13980;DHT22;73871;49.900;8.594;2024-01-15T09:24:48;1.40;99.90
13980;DHT22;73871;49.900;8.594;2024-01-15T09:27:15;1.50;99.90
13980;DHT22;73871;49.900;8.594;2024-01-15T09:29:42;1.50;99.90
13980;DHT22;73871;49.900;8.594;2024-01-15T09:32:12;1.40;99.90
13980;DHT22;73871;49.900;8.594;2024-01-15T09:34:39;1.40;99.90
13980;DHT22;73871;49.900;8.594;2024-01-15T09:37:06;1.30;99.90
13980;DHT22;73871;49.900;8.594;2024-01-15T09:39:33;1.30;99.90
13980;DHT22;73871;49.900;8.594;2024-01-15T09:42:01;1.30;99.90
13980;DHT22;73871;49.900;8.594;2024-01-15T09:44:29;1.40;99.90
13980;DHT22;73871;49.900;8.594;2024-01-15T09:46:56;1.60;99.90
13980;DHT22;73871;49.900;8.594;2024-01-15T09:49:23;1.80;99.90
13980;DHT22;73871;49.900;8.594;2024-01-15T09:51:51;1.80;99.90
13980;DHT22;73871;49.900;8.594;2024-01-15T09:54:32;1.60;99.90
13980;DHT22;73871;49.900;8.594;2024-01-15T09:57:00;1.40;99.90
13980;DHT22;73871;49.900;8.594;2024-01-15T09:59:28;1.50;99.90
13980;DHT22;73871;49.900;8.594;2024-01-15T10:01:55;1.40;99.90
13980;DHT22;73871;49.900;8.594;2024-01-15T10:04:24;1.40;99.90
13980;DHT22;73871;49.900;8.594;2024-01-15T10:06:51;1.50;99.90
13980;DHT22;73871;49.900;8.594;2024-01-15T10:09:18;1.50;99.90
13980;DHT22;73871;49.900;8.594;2024-01-15T10:11:45;1.40;99.90
13980;DHT22;73871;49.900;8.594;2024-01-15T10:14:12;1.40;99.90
13980;DHT22;73871;49.900;8.594;2024-01-15T10:16:40;1.40;99.90
13980;DHT22;73871;49.900;8.594;2024-01-15T10:19:08;1.20;99.90
13980;DHT22;73871;49.900;8.594;2024-01-15T10:21:35;1.20;99.90
13980;DHT22;73871;49.900;8.594;2024-01-15T10:24:04;1.20;99.90
13980;DHT22;73871;49.900;8.594;2024-01-15T10:26:33;1.20;99.90
13980;DHT22;73871;49.900;8.594;2024-01-15T10:29:00;1.40;99.90
13980;DHT22;73871;49.900;8.594;2024-01-15T10:31:27;1.30;99.90
13980;DHT22;73871;49.900;8.594;2024-01-15T10:34:10;1.30;99.90
13980;DHT22;73871;49.900;8.594;2024-01-15T10:36:45;1.40;99.90
13980;DHT22;73871;49.900;8.594;2024-01-15T10:39:14;1.50;99.90
13980;DHT22;73871;49.900;8.594;2024-01-15T10:41:41;1.50;99.90
13980;DHT22;73871;49.900;8.594;2024-01-15T10:44:08;1.70;99.90
13980;DHT22;73871;49.900;8.594;2024-01-15T10:46:35;1.80;99.90
13980;DHT22;73871;49.900;8.594;2024-01-15T10:49:02;1.80;99.90
13980;DHT22;73871;49.900;8.594;2024-01-15T10:51:29;1.70;99.90
13980;DHT22;73871;49.900;8.594;2024-01-15T10:53:57;1.80;99.90
13980;DHT22;73871;49.900;8.594;2024-01-15T10:56:26;1.80;99.90
13980;DHT22;73871;49.900;8.594;2024-01-15T10:58:54;1.80;99.90
13980;DHT22;73871;49.900;8.594;2024-01-15T11:01:26;1.80;99.90
13980;DHT22;73871;49.900;8.594;2024-01-15T11:03:56;1.90;99.90
13980;DHT22;73871;49.900;8.594;2024-01-15T11:06:25;2.00;99.90
13980;DHT22;73871;49.900;8.594;2024-01-15T11:08:54;2.10;99.90
13980;DHT22;73871;49.900;8.594;2024-01-15T11:11:22;2.30;99.90
13980;DHT22;73871;49.900;8.594;2024-01-15T11:13:49;2.50;99.90
13980;DHT22;73871;49.900;8.594;2024-01-15T11:16:19;2.60;99.90
13980;DHT22;73871;49.900;8.594;2024-01-15T11:21:25;2.70;99.90
13980;DHT22;73871;49.900;8.594;2024-01-15T11:23:59;2.90;99.90
13980;DHT22;73871;49.900;8.594;2024-01-15T11:26:35;3.00;99.90
13980;DHT22;73871;49.900;8.594;2024-01-15T11:29:07;3.20;99.90
13980;DHT22;73871;49.900;8.594;2024-01-15T11:34:10;3.60;99.90
13980;DHT22;73871;49.900;8.594;2024-01-15T11:42:03;3.90;99.90
13980;DHT22;73871;49.900;8.594;2024-01-15T11:44:30;4.00;99.90
13980;DHT22;73871;49.900;8.594;2024-01-15T11:47:02;4.00;99.90
13980;DHT22;73871;49.900;8.594;2024-01-15T11:52:11;4.20;99.90
13980;DHT22;73871;49.900;8.594;2024-01-15T11:54:38;4.30;99.90
13980;DHT22;73871;49.900;8.594;2024-01-15T11:57:11;4.30;99.90
13980;DHT22;73871;49.900;8.594;2024-01-15T11:59:42;4.30;99.90
13980;DHT22;73871;49.900;8.594;2024-01-15T12:02:10;4.50;99.90
13980;DHT22;73871;49.900;8.594;2024-01-15T12:04:40;4.50;99.90
13980;DHT22;73871;49.900;8.594;2024-01-15T12:07:06;4.40;99.90
13980;DHT22;73871;49.900;8.594;2024-01-15T12:09:33;4.20;99.90
13980;DHT22;73871;49.900;8.594;2024-01-15T12:12:06;4.20;99.90
13980;DHT22;73871;49.900;8.594;2024-01-15T12:14:34;4.10;99.90
13980;DHT22;73871;49.900;8.594;2024-01-15T12:17:04;3.90;99.90
13980;DHT22;73871;49.900;8.594;2024-01-15T12:19:31;3.80;99.90
13980;DHT22;73871;49.900;8.594;2024-01-15T12:21:58;3.70;99.90
13980;DHT22;73871;49.900;8.594;2024-01-15T12:24:25;3.60;99.90
13980;DHT22;73871;49.900;8.594;2024-01-15T12:26:52;3.60;99.90
13980;DHT22;73871;49.900;8.594;2024-01-15T12:29:19;3.60;99.90
13980;DHT22;73871;49.900;8.594;2024-01-15T12:31:49;3.70;99.90
13980;DHT22;73871;49.900;8.594;2024-01-15T12:34:17;3.70;99.90
13980;DHT22;73871;49.900;8.594;2024-01-15T12:36:46;3.80;99.90
13980;DHT22;73871;49.900;8.594;2024-01-15T12:39:13;3.80;99.90
13980;DHT22;73871;49.900;8.594;2024-01-15T12:41:40;3.90;99.90
13980;DHT22;73871;49.900;8.594;2024-01-15T12:44:07;4.00;99.90
13980;DHT22;73871;49.900;8.594;2024-01-15T12:46:34;4.10;99.90
13980;DHT22;73871;49.900;8.594;2024-01-15T12:49:04;4.10;99.90
13980;DHT22;73871;49.900;8.594;2024-01-15T12:51:34;4.20;99.90
13980;DHT22;73871;49.900;8.594;2024-01-15T12:54:01;4.10;99.90
13980;DHT22;73871;49.900;8.594;2024-01-15T12:56:28;4.10;99.90
13980;DHT22;73871;49.900;8.594;2024-01-15T12:58:54;4.10;99.90
13980;DHT22;73871;49.900;8.594;2024-01-15T13:01:21;4.10;99.90
13980;DHT22;73871;49.900;8.594;2024-01-15T13:03:48;4.00;99.90
13980;DHT22;73871;49.900;8.594;2024-01-15T13:06:15;4.10;99.90
13980;DHT22;73871;49.900;8.594;2024-01-15T13:08:43;4.10;99.90
13980;DHT22;73871;49.900;8.594;2024-01-15T13:11:10;4.10;99.90
13980;DHT22;73871;49.900;8.594;2024-01-15T13:13:37;4.20;99.90
13980;DHT22;73871;49.900;8.594;2024-01-15T13:16:04;4.20;99.90
13980;DHT22;73871;49.900;8.594;2024-01-15T13:18:31;4.30;99.90
13980;DHT22;73871;49.900;8.594;2024-01-15T13:20:58;4.20;99.90
13980;DHT22;73871;49.900;8.594;2024-01-15T13:23:25;4.30;99.90
13980;DHT22;73871;49.900;8.594;2024-01-15T13:25:52;4.10;99.90
13980;DHT22;73871;49.900;8.594;2024-01-15T13:28:18;4.10;99.90
13980;DHT22;73871;49.900;8.594;2024-01-15T13:30:45;4.10;99.90
13980;DHT22;73871;49.900;8.594;2024-01-15T13:33:12;4.20;99.90
13980;DHT22;73871;49.900;8.594;2024-01-15T13:35:40;4.20;99.90
13980;DHT22;73871;49.900;8.594;2024-01-15T13:38:06;4.20;99.90
13980;DHT22;73871;49.900;8.594;2024-01-15T13:40:35;4.30;99.90
13980;DHT22;73871;49.900;8.594;2024-01-15T13:43:02;4.30;99.90
13980;DHT22;73871;49.900;8.594;2024-01-15T13:45:29;4.20;99.90
13980;DHT22;73871;49.900;8.594;2024-01-15T13:47:56;4.10;99.90
13980;DHT22;73871;49.900;8.594;2024-01-15T13:50:23;4.00;99.90
13980;DHT22;73871;49.900;8.594;2024-01-15T13:52:51;3.90;99.90
13980;DHT22;73871;49.900;8.594;2024-01-15T13:55:18;3.70;99.90
13980;DHT22;73871;49.900;8.594;2024-01-15T13:57:45;3.60;99.90
13980;DHT22;73871;49.900;8.594;2024-01-15T14:00:12;3.50;99.90
13980;DHT22;73871;49.900;8.594;2024-01-15T14:02:40;3.50;99.90
13980;DHT22;73871;49.900;8.594;2024-01-15T14:05:06;3.50;99.90
13980;DHT22;73871;49.900;8.594;2024-01-15T14:07:33;3.40;99.90
13980;DHT22;73871;49.900;8.594;2024-01-15T14:10:00;3.40;99.90
13980;DHT22;73871;49.900;8.594;2024-01-15T14:12:27;3.40;99.90
13980;DHT22;73871;49.900;8.594;2024-01-15T14:14:54;3.40;99.90
13980;DHT22;73871;49.900;8.594;2024-01-15T14:17:21;3.50;99.90
13980;DHT22;73871;49.900;8.594;2024-01-15T14:19:47;3.60;99.90
13980;DHT22;73871;49.900;8.594;2024-01-15T14:22:14;3.70;99.90
13980;DHT22;73871;49.900;8.594;2024-01-15T14:24:41;3.70;99.90
13980;DHT22;73871;49.900;8.594;2024-01-15T14:27:08;3.70;99.90
13980;DHT22;73871;49.900;8.594;2024-01-15T14:29:35;3.70;99.90
13980;DHT22;73871;49.900;8.594;2024-01-15T14:32:02;3.70;99.90
13980;DHT22;73871;49.900;8.594;2024-01-15T14:34:29;3.70;99.90
13980;DHT22;73871;49.900;8.594;2024-01-15T14:36:56;3.70;99.90
13980;DHT22;73871;49.900;8.594;2024-01-15T14:39:24;3.70;99.90
13980;DHT22;73871;49.900;8.594;2024-01-15T14:41:51;3.70;99.90
13980;DHT22;73871;49.900;8.594;2024-01-15T14:44:18;3.70;99.90
13980;DHT22;73871;49.900;8.594;2024-01-15T14:46:45;3.70;99.90
13980;DHT22;73871;49.900;8.594;2024-01-15T14:49:13;3.70;99.90
13980;DHT22;73871;49.900;8.594;2024-01-15T14:51:41;3.60;99.90
13980;DHT22;73871;49.900;8.594;2024-01-15T14:54:08;3.60;99.90
13980;DHT22;73871;49.900;8.594;2024-01-15T14:56:35;3.50;99.90
13980;DHT22;73871;49.900;8.594;2024-01-15T14:59:02;3.60;99.90
13980;DHT22;73871;49.900;8.594;2024-01-15T15:01:29;3.50;99.90
13980;DHT22;73871;49.900;8.594;2024-01-15T15:03:56;3.50;99.90
13980;DHT22;73871;49.900;8.594;2024-01-15T15:06:23;3.50;99.90
13980;DHT22;73871;49.900;8.594;2024-01-15T15:08:54;3.40;99.90
13980;DHT22;73871;49.900;8.594;2024-01-15T15:11:25;3.40;99.90
13980;DHT22;73871;49.900;8.594;2024-01-15T15:13:52;3.30;99.90
13980;DHT22;73871;49.900;8.594;2024-01-15T15:16:19;3.30;99.90
13980;DHT22;73871;49.900;8.594;2024-01-15T15:18:46;3.30;99.90
13980;DHT22;73871;49.900;8.594;2024-01-15T15:21:14;3.40;99.90
13980;DHT22;73871;49.900;8.594;2024-01-15T15:23:42;3.50;99.90
13980;DHT22;73871;49.900;8.594;2024-01-15T15:26:09;3.70;99.90
13980;DHT22;73871;49.900;8.594;2024-01-15T15:28:36;3.80;99.90
13980;DHT22;73871;49.900;8.594;2024-01-15T15:31:06;3.90;99.90
13980;DHT22;73871;49.900;8.594;2024-01-15T15:33:39;3.80;99.90
13980;DHT22;73871;49.900;8.594;2024-01-15T15:36:07;3.80;99.90
13980;DHT22;73871;49.900;8.594;2024-01-15T15:38:34;3.70;99.90
13980;DHT22;73871;49.900;8.594;2024-01-15T15:41:01;3.70;99.90
13980;DHT22;73871;49.900;8.594;2024-01-15T15:43:28;3.60;99.90
13980;DHT22;73871;49.900;8.594;2024-01-15T15:45:56;3.50;99.90
13980;DHT22;73871;49.900;8.594;2024-01-15T15:48:26;3.40;99.90
13980;DHT22;73871;49.900;8.594;2024-01-15T15:50:53;3.30;99.90